createdAt,value
2024-03-18T00:00:58.963Z,91.98
2024-03-18T00:01:58.915Z,92.08
2024-03-18T00:02:58.936Z,92.19
2024-03-18T00:03:58.900Z,92.08
2024-03-18T00:04:58.912Z,91.98
2024-03-18T00:05:58.868Z,91.88
2024-03-18T00:06:58.884Z,91.88
2024-03-18T00:07:58.861Z,91.77
2024-03-18T00:08:58.877Z,91.67
2024-03-18T00:09:58.842Z,91.67
2024-03-18T00:10:58.852Z,91.36
2024-03-18T00:11:58.803Z,91.16
2024-03-18T00:12:58.812Z,91.16
2024-03-18T00:13:58.792Z,91.16
2024-03-18T00:14:58.807Z,91.22
2024-03-18T00:15:58.760Z,91.11
2024-03-18T00:16:58.784Z,91.16
2024-03-18T00:17:58.745Z,91.26
2024-03-18T00:18:58.752Z,91.22
2024-03-18T00:19:58.722Z,91.22
2024-03-18T00:20:58.735Z,91.26
2024-03-18T00:21:58.696Z,91.32
2024-03-18T00:22:58.703Z,91.32
2024-03-18T00:23:58.675Z,91.22
2024-03-18T00:24:58.702Z,91.26
2024-03-18T00:25:58.664Z,91.46
2024-03-18T00:26:58.689Z,91.36
2024-03-18T00:27:58.629Z,91.46
2024-03-18T00:28:58.651Z,91.46
2024-03-18T00:29:58.628Z,91.56
2024-03-18T00:30:58.614Z,91.77
2024-03-18T00:31:58.592Z,91.88
2024-03-18T00:32:58.608Z,91.98
2024-03-18T00:33:58.589Z,91.98
2024-03-18T00:34:58.597Z,92.19
2024-03-18T00:35:58.553Z,92.08
2024-03-18T00:36:58.579Z,92.19
2024-03-18T00:37:58.528Z,92.29
2024-03-18T00:38:58.553Z,92.29
2024-03-18T00:39:58.503Z,92.40
2024-03-18T00:40:58.511Z,92.40
2024-03-18T00:41:58.485Z,92.40
2024-03-18T00:42:58.511Z,92.19
2024-03-18T00:43:58.481Z,92.08
2024-03-18T00:44:58.494Z,91.98
2024-03-18T00:45:58.443Z,91.77
2024-03-18T00:46:58.462Z,91.67
2024-03-18T00:47:58.443Z,91.67
2024-03-18T00:48:58.447Z,91.56
2024-03-18T00:49:58.414Z,91.36
2024-03-18T00:50:58.401Z,91.26
2024-03-18T00:51:58.383Z,91.20
2024-03-18T00:52:58.393Z,91.30
2024-03-18T00:53:58.356Z,91.30
2024-03-18T00:54:58.377Z,91.40
2024-03-18T00:55:58.357Z,91.40
2024-03-18T00:56:58.352Z,91.40
2024-03-18T00:57:58.312Z,91.30
2024-03-18T00:58:58.332Z,91.20
2024-03-18T00:59:58.292Z,91.09
2024-03-18T01:00:58.342Z,91.20
2024-03-18T01:01:58.284Z,91.61
2024-03-18T01:02:58.293Z,91.82
2024-03-18T01:03:58.247Z,91.71
2024-03-18T01:04:58.266Z,91.71
2024-03-18T01:05:58.253Z,91.71
2024-03-18T01:06:58.251Z,91.50
2024-03-18T01:07:58.199Z,91.50
2024-03-18T01:08:58.212Z,91.50
2024-03-18T01:09:58.183Z,91.56
2024-03-18T01:10:58.213Z,91.56
2024-03-18T01:11:58.160Z,91.67
2024-03-18T01:12:58.164Z,91.56
2024-03-18T01:13:58.137Z,91.56
2024-03-18T01:14:58.139Z,91.56
2024-03-18T01:15:58.116Z,91.67
2024-03-18T01:16:58.153Z,91.88
2024-03-18T01:17:58.111Z,91.98
2024-03-18T01:18:58.111Z,91.92
2024-03-18T01:19:58.070Z,91.92
2024-03-18T01:20:58.108Z,92.23
2024-03-18T01:21:58.051Z,92.54
2024-03-18T01:22:58.074Z,92.74
2024-03-18T01:23:58.036Z,92.95
2024-03-18T01:24:58.068Z,93.05
2024-03-18T01:25:58.004Z,93.26
2024-03-18T01:26:58.006Z,93.16
2024-03-18T01:27:57.981Z,93.16
2024-03-18T01:28:57.987Z,93.05
2024-03-18T01:29:57.961Z,93.05
2024-03-18T01:30:57.995Z,93.26
2024-03-18T01:31:57.944Z,93.16
2024-03-18T01:32:57.961Z,93.05
2024-03-18T01:33:57.916Z,93.05
2024-03-18T01:34:57.920Z,93.05
2024-03-18T01:35:57.900Z,92.95
2024-03-18T01:36:57.920Z,92.95
2024-03-18T01:37:57.870Z,92.95
2024-03-18T01:38:57.876Z,92.95
2024-03-18T01:39:57.848Z,92.95
2024-03-18T01:40:57.866Z,92.95
2024-03-18T01:41:57.836Z,92.95
2024-03-18T01:42:57.848Z,92.95
2024-03-18T01:43:57.851Z,92.85
2024-03-18T01:44:57.820Z,92.85
2024-03-18T01:45:57.780Z,92.95
2024-03-18T01:46:57.809Z,93.05
2024-03-18T01:47:57.796Z,93.05
2024-03-18T01:48:57.770Z,93.16
2024-03-18T01:49:57.750Z,93.26
2024-03-18T01:50:57.751Z,93.41
2024-03-18T01:51:57.718Z,93.37
2024-03-18T01:52:57.768Z,93.41
2024-03-18T01:53:57.705Z,93.26
2024-03-18T01:54:57.723Z,93.30
2024-03-18T01:55:57.675Z,93.20
2024-03-18T01:56:57.704Z,93.30
2024-03-18T01:57:57.683Z,93.30
2024-03-18T01:58:57.646Z,93.41
2024-03-18T01:59:57.653Z,93.41
2024-03-18T02:00:57.622Z,93.62
2024-03-18T02:01:57.640Z,93.62
2024-03-18T02:02:57.607Z,93.72
2024-03-18T02:03:57.621Z,93.82
2024-03-18T02:04:57.598Z,93.82
2024-03-18T02:05:57.614Z,93.72
2024-03-18T02:06:57.555Z,93.62
2024-03-18T02:07:57.593Z,93.72
2024-03-18T02:08:57.553Z,93.51
2024-03-18T02:09:57.588Z,93.41
2024-03-18T02:10:57.521Z,93.41
2024-03-18T02:11:57.520Z,93.51
2024-03-18T02:12:57.485Z,93.51
2024-03-18T02:13:57.492Z,93.62
2024-03-18T02:14:57.468Z,93.72
2024-03-18T02:15:57.502Z,93.55
2024-03-18T02:16:57.444Z,93.66
2024-03-18T02:17:57.483Z,93.76
2024-03-18T02:18:57.422Z,93.66
2024-03-18T02:19:57.455Z,93.45
2024-03-18T02:20:57.428Z,93.35
2024-03-18T02:21:57.425Z,93.24
2024-03-18T02:22:57.395Z,93.14
2024-03-18T02:23:57.399Z,93.24
2024-03-18T02:24:57.357Z,93.24
2024-03-18T02:25:57.366Z,93.14
2024-03-18T02:26:57.334Z,93.14
2024-03-18T02:27:57.361Z,93.24
2024-03-18T02:28:57.314Z,93.35
2024-03-18T02:29:57.322Z,93.60
2024-03-18T02:30:57.297Z,93.70
2024-03-18T02:31:57.312Z,93.70
2024-03-18T02:32:57.277Z,93.70
2024-03-18T02:33:57.298Z,93.70
2024-03-18T02:34:57.246Z,93.70
2024-03-18T02:35:57.272Z,93.91
2024-03-18T02:36:57.230Z,93.91
2024-03-18T02:37:57.261Z,93.80
2024-03-18T02:38:57.224Z,93.60
2024-03-18T02:39:57.241Z,93.70
2024-03-18T02:40:57.188Z,93.49
2024-03-18T02:41:57.193Z,93.49
2024-03-18T02:42:57.170Z,93.43
2024-03-18T02:43:57.204Z,93.43
2024-03-18T02:44:57.150Z,93.43
2024-03-18T02:45:57.158Z,93.33
2024-03-18T02:46:57.129Z,93.43
2024-03-18T02:47:57.142Z,93.54
2024-03-18T02:48:57.110Z,93.74
2024-03-18T02:49:57.114Z,93.85
2024-03-18T02:50:57.073Z,93.85
2024-03-18T02:51:57.093Z,93.95
2024-03-18T02:52:57.057Z,94.16
2024-03-18T02:53:57.058Z,94.20
2024-03-18T02:54:57.037Z,94.41
2024-03-18T02:55:57.045Z,94.51
2024-03-18T02:56:57.006Z,94.41
2024-03-18T02:57:57.021Z,94.16
2024-03-18T02:58:56.982Z,93.99
2024-03-18T02:59:57.002Z,93.99
2024-03-18T03:00:56.959Z,93.85
2024-03-18T03:01:56.973Z,93.89
2024-03-18T03:02:56.938Z,93.99
2024-03-18T03:03:56.952Z,94.10
2024-03-18T03:04:56.927Z,94.20
2024-03-18T03:05:56.947Z,94.20
2024-03-18T03:06:56.897Z,94.10
2024-03-18T03:07:56.929Z,94.10
2024-03-18T03:08:56.881Z,93.89
2024-03-18T03:09:56.899Z,93.68
2024-03-18T03:10:56.880Z,93.79
2024-03-18T03:11:56.886Z,94.10
2024-03-18T03:12:56.851Z,93.99
2024-03-18T03:13:56.855Z,94.10
2024-03-18T03:14:56.826Z,93.99
2024-03-18T03:15:56.822Z,93.85
2024-03-18T03:16:56.814Z,93.89
2024-03-18T03:17:56.802Z,93.79
2024-03-18T03:18:56.779Z,93.58
2024-03-18T03:19:56.805Z,93.48
2024-03-18T03:20:56.751Z,93.48
2024-03-18T03:21:56.768Z,93.37
2024-03-18T03:22:56.751Z,93.16
2024-03-18T03:23:56.735Z,93.06
2024-03-18T03:24:56.709Z,93.27
2024-03-18T03:25:56.735Z,93.37
2024-03-18T03:26:56.684Z,93.68
2024-03-18T03:27:56.707Z,93.79
2024-03-18T03:28:56.697Z,93.79
2024-03-18T03:29:56.677Z,93.99
2024-03-18T03:30:56.644Z,94.14
2024-03-18T03:31:56.677Z,94.31
2024-03-18T03:32:56.620Z,94.20
2024-03-18T03:33:56.656Z,94.20
2024-03-18T03:34:56.614Z,94.35
2024-03-18T03:35:56.605Z,94.24
2024-03-18T03:36:56.579Z,94.24
2024-03-18T03:37:56.596Z,94.35
2024-03-18T03:38:56.570Z,94.20
2024-03-18T03:39:56.590Z,94.20
2024-03-18T03:40:56.568Z,94.20
2024-03-18T03:41:56.544Z,94.24
2024-03-18T03:42:56.529Z,94.24
2024-03-18T03:43:56.582Z,94.35
2024-03-18T03:44:56.489Z,94.45
2024-03-18T03:45:56.514Z,94.56
2024-03-18T03:46:56.492Z,94.97
2024-03-18T03:47:56.496Z,95.07
2024-03-18T03:48:56.457Z,95.22
2024-03-18T03:49:56.515Z,95.22
2024-03-18T03:50:56.429Z,95.12
2024-03-18T03:51:56.456Z,95.12
2024-03-18T03:52:56.429Z,95.01
2024-03-18T03:53:56.420Z,94.91
2024-03-18T03:54:56.398Z,94.91
2024-03-18T03:55:56.459Z,94.91
2024-03-18T03:56:56.384Z,95.01
2024-03-18T03:57:56.369Z,94.91
2024-03-18T03:58:56.422Z,94.81
2024-03-18T03:59:56.364Z,94.70
2024-03-18T04:00:56.353Z,94.49
2024-03-18T04:01:56.409Z,94.29
2024-03-18T04:02:56.300Z,93.98
2024-03-18T04:03:56.310Z,93.87
2024-03-18T04:04:56.317Z,93.87
2024-03-18T04:05:56.303Z,93.98
2024-03-18T04:06:56.278Z,94.08
2024-03-18T04:07:56.320Z,94.29
2024-03-18T04:08:56.240Z,94.39
2024-03-18T04:09:56.254Z,94.49
2024-03-18T04:10:56.236Z,94.49
2024-03-18T04:11:56.234Z,94.39
2024-03-18T04:12:56.199Z,94.18
2024-03-18T04:13:56.245Z,93.98
2024-03-18T04:14:56.187Z,93.87
2024-03-18T04:15:56.205Z,93.77
2024-03-18T04:16:56.195Z,93.66
2024-03-18T04:17:56.176Z,93.56
2024-03-18T04:18:56.139Z,93.56
2024-03-18T04:19:56.205Z,93.60
2024-03-18T04:20:56.113Z,93.50
2024-03-18T04:21:56.130Z,93.50
2024-03-18T04:22:56.125Z,93.29
2024-03-18T04:23:56.124Z,93.08
2024-03-18T04:24:56.080Z,92.98
2024-03-18T04:25:56.142Z,93.08
2024-03-18T04:26:56.051Z,93.19
2024-03-18T04:27:56.056Z,93.08
2024-03-18T04:28:56.063Z,93.08
2024-03-18T04:29:56.054Z,93.29
2024-03-18T04:30:56.009Z,93.29
2024-03-18T04:31:56.079Z,93.19
2024-03-18T04:32:55.994Z,93.54
2024-03-18T04:33:56.001Z,93.54
2024-03-18T04:34:55.987Z,93.75
2024-03-18T04:35:55.991Z,94.06
2024-03-18T04:36:55.944Z,94.17
2024-03-18T04:37:55.989Z,94.17
2024-03-18T04:38:55.927Z,94.17
2024-03-18T04:39:55.941Z,94.37
2024-03-18T04:40:55.928Z,94.58
2024-03-18T04:41:55.908Z,94.58
2024-03-18T04:42:55.880Z,94.58
2024-03-18T04:43:55.912Z,94.58
2024-03-18T04:44:55.862Z,94.37
2024-03-18T04:45:55.907Z,94.17
2024-03-18T04:46:55.869Z,94.17
2024-03-18T04:47:55.845Z,94.27
2024-03-18T04:48:55.842Z,94.37
2024-03-18T04:49:55.837Z,94.37
2024-03-18T04:50:55.800Z,94.42
2024-03-18T04:51:55.815Z,94.32
2024-03-18T04:52:55.782Z,94.11
2024-03-18T04:53:55.828Z,94.11
2024-03-18T04:54:55.757Z,94.32
2024-03-18T04:55:55.745Z,94.21
2024-03-18T04:56:55.754Z,94.21
2024-03-18T04:57:55.706Z,93.90
2024-03-18T04:58:55.702Z,94.01
2024-03-18T04:59:55.722Z,94.01
2024-03-18T05:00:55.700Z,94.11
2024-03-18T05:01:55.750Z,94.32
2024-03-18T05:02:55.645Z,94.21
2024-03-18T05:03:55.709Z,94.21
2024-03-18T05:04:55.662Z,94.11
2024-03-18T05:05:55.647Z,94.01
2024-03-18T05:06:55.584Z,93.80
2024-03-18T05:07:55.626Z,93.59
2024-03-18T05:08:55.583Z,93.49
2024-03-18T05:09:55.586Z,93.70
2024-03-18T05:10:55.554Z,93.70
2024-03-18T05:11:55.566Z,93.80
2024-03-18T05:12:55.529Z,93.90
2024-03-18T05:13:55.577Z,94.11
2024-03-18T05:14:55.505Z,94.21
2024-03-18T05:15:55.540Z,94.01
2024-03-18T05:16:55.481Z,94.11
2024-03-18T05:17:55.495Z,94.01
2024-03-18T05:18:55.457Z,94.32
2024-03-18T05:19:55.498Z,94.21
2024-03-18T05:20:55.435Z,94.21
2024-03-18T05:21:55.439Z,94.21
2024-03-18T05:22:55.418Z,94.01
2024-03-18T05:23:55.415Z,93.80
2024-03-18T05:24:55.411Z,93.90
2024-03-18T05:25:55.438Z,93.70
2024-03-18T05:26:55.388Z,93.59
2024-03-18T05:27:55.409Z,93.59
2024-03-18T05:28:55.368Z,93.59
2024-03-18T05:29:55.372Z,93.80
2024-03-18T05:30:55.325Z,93.84
2024-03-18T05:31:55.383Z,94.46
2024-03-18T05:32:55.312Z,95.19
2024-03-18T05:33:55.314Z,95.40
2024-03-18T05:34:55.295Z,95.29
2024-03-18T05:35:55.294Z,95.40
2024-03-18T05:36:55.288Z,95.50
2024-03-18T05:37:55.284Z,95.40
2024-03-18T05:38:55.244Z,95.29
2024-03-18T05:39:55.268Z,95.40
2024-03-18T05:40:55.255Z,95.50
2024-03-18T05:41:55.246Z,95.61
2024-03-18T05:42:55.207Z,95.71
2024-03-18T05:43:55.270Z,95.71
2024-03-18T05:44:55.182Z,95.50
2024-03-18T05:45:55.244Z,95.40
2024-03-18T05:46:55.179Z,95.15
2024-03-18T05:47:55.184Z,95.15
2024-03-18T05:48:55.161Z,95.15
2024-03-18T05:49:55.205Z,94.73
2024-03-18T05:50:55.139Z,94.63
2024-03-18T05:51:55.139Z,94.53
2024-03-18T05:52:55.133Z,94.53
2024-03-18T05:53:55.110Z,94.73
2024-03-18T05:54:55.076Z,94.84
2024-03-18T05:55:55.109Z,94.73
2024-03-18T05:56:55.092Z,94.73
2024-03-18T05:57:55.067Z,94.58
2024-03-18T05:58:55.073Z,94.37
2024-03-18T05:59:55.055Z,94.37
2024-03-18T06:00:55.020Z,94.48
2024-03-18T06:01:55.041Z,94.58
2024-03-18T06:02:55.018Z,94.68
2024-03-18T06:03:55.004Z,94.68
2024-03-18T06:04:54.981Z,94.58
2024-03-18T06:05:54.993Z,94.58
2024-03-18T06:06:54.950Z,94.68
2024-03-18T06:07:54.983Z,94.68
2024-03-18T06:08:54.957Z,94.74
2024-03-18T06:09:54.938Z,94.64
2024-03-18T06:10:54.917Z,94.64
2024-03-18T06:11:54.931Z,94.54
2024-03-18T06:12:54.988Z,94.33
2024-03-18T06:13:54.912Z,94.12
2024-03-18T06:14:55.123Z,94.79
2024-03-18T06:15:54.956Z,95.16
2024-03-18T06:16:54.863Z,94.89
2024-03-18T06:17:54.834Z,95.31
2024-03-18T06:18:54.866Z,95.83
2024-03-18T06:19:54.828Z,96.03
2024-03-18T06:20:57.352Z,95.99
2024-03-18T06:21:54.858Z,96.09
2024-03-18T06:22:54.836Z,95.89
2024-03-18T06:23:54.769Z,95.57
2024-03-18T06:24:54.786Z,95.53
2024-03-18T06:25:54.762Z,95.53
2024-03-18T06:26:54.771Z,95.43
2024-03-18T06:27:54.725Z,95.22
2024-03-18T06:28:54.748Z,94.97
2024-03-18T06:29:54.706Z,94.76
2024-03-18T06:30:54.723Z,94.56
2024-03-18T06:31:54.687Z,94.62
2024-03-18T06:32:54.724Z,94.62
2024-03-18T06:33:54.670Z,94.62
2024-03-18T06:34:54.692Z,94.82
2024-03-18T06:35:54.639Z,94.93
2024-03-18T06:36:54.663Z,95.03
2024-03-18T06:37:54.620Z,94.89
2024-03-18T06:38:54.638Z,94.78
2024-03-18T06:39:54.601Z,94.68
2024-03-18T06:40:54.682Z,94.47
2024-03-18T06:41:54.574Z,94.26
2024-03-18T06:42:54.613Z,94.01
2024-03-18T06:43:54.584Z,94.01
2024-03-18T06:44:54.563Z,94.01
2024-03-18T06:45:54.550Z,94.01
2024-03-18T06:46:54.544Z,94.12
2024-03-18T06:47:54.620Z,93.91
2024-03-18T06:48:54.563Z,93.80
2024-03-18T06:49:54.522Z,93.66
2024-03-18T06:50:54.624Z,93.76
2024-03-18T06:51:54.525Z,93.66
2024-03-18T06:52:54.502Z,93.55
2024-03-18T06:53:54.473Z,93.66
2024-03-18T06:54:54.461Z,93.76
2024-03-18T06:55:54.438Z,93.87
2024-03-18T06:56:54.483Z,93.82
2024-03-18T06:57:54.404Z,93.72
2024-03-18T06:58:54.429Z,93.30
2024-03-18T06:59:54.406Z,93.16
2024-03-18T07:00:56.202Z,93.16
2024-03-18T07:01:54.360Z,92.95
2024-03-18T07:02:54.386Z,93.16
2024-03-18T07:03:54.340Z,92.85
2024-03-18T07:04:54.381Z,92.95
2024-03-18T07:05:54.327Z,93.05
2024-03-18T07:06:56.948Z,93.12
2024-03-18T07:07:54.312Z,92.60
2024-03-18T07:08:54.319Z,92.60
2024-03-18T07:09:54.286Z,92.50
2024-03-18T07:10:54.284Z,92.29
2024-03-18T07:11:54.268Z,91.98
2024-03-18T07:12:54.284Z,91.88
2024-03-18T07:13:54.234Z,91.88
2024-03-18T07:14:54.279Z,91.98
2024-03-18T07:15:54.316Z,91.94
2024-03-18T07:16:54.241Z,92.04
2024-03-18T07:17:54.206Z,92.35
2024-03-18T07:18:54.200Z,92.25
2024-03-18T07:20:07.485Z,92.14
2024-03-18T07:20:54.520Z,92.21
2024-03-18T07:21:54.149Z,92.31
2024-03-18T07:22:54.175Z,92.41
2024-03-18T07:23:54.174Z,92.21
2024-03-18T07:24:54.148Z,91.85
2024-03-18T07:25:54.144Z,91.85
2024-03-18T07:26:54.123Z,91.64
2024-03-18T07:27:54.139Z,91.19
2024-03-18T07:28:54.108Z,90.99
2024-03-18T07:29:54.137Z,90.99
2024-03-18T07:30:54.094Z,90.88
2024-03-18T07:31:54.150Z,90.84
2024-03-18T07:32:54.047Z,90.73
2024-03-18T07:33:54.017Z,90.53
2024-03-18T07:35:01.055Z,90.08
2024-03-18T07:35:54.003Z,89.46
2024-03-18T07:36:54.007Z,88.84
2024-03-18T07:37:53.982Z,88.95
2024-03-18T07:38:54.045Z,89.01
2024-03-18T07:39:53.962Z,88.70
2024-03-18T07:40:53.976Z,89.01
2024-03-18T07:41:54.004Z,88.80
2024-03-18T07:42:53.969Z,88.59
2024-03-18T07:43:53.915Z,88.45
2024-03-18T07:44:53.932Z,88.04
2024-03-18T07:45:53.990Z,87.84
2024-03-18T07:46:53.912Z,87.94
2024-03-18T07:47:53.900Z,87.52
2024-03-18T07:48:54.553Z,87.18
2024-03-18T07:49:53.844Z,86.77
2024-03-18T07:50:53.923Z,86.25
2024-03-18T07:51:53.849Z,85.63
2024-03-18T07:52:53.851Z,85.02
2024-03-18T07:53:53.797Z,84.98
2024-03-18T07:54:53.829Z,85.49
2024-03-18T07:55:53.791Z,85.08
2024-03-18T07:56:53.796Z,84.56
2024-03-18T07:57:53.778Z,84.88
2024-03-18T07:58:53.778Z,84.42
2024-03-18T07:59:53.741Z,83.91
2024-03-18T08:00:53.755Z,83.81
2024-03-18T08:01:53.715Z,83.15
2024-03-18T08:02:53.785Z,82.43
2024-03-18T08:03:53.725Z,80.07
2024-03-18T08:04:53.706Z,80.79
2024-03-18T08:05:53.681Z,81.20
2024-03-18T08:06:53.728Z,80.79
2024-03-18T08:07:53.685Z,80.76
2024-03-18T08:08:53.745Z,80.04
2024-03-18T08:09:53.670Z,79.32
2024-03-18T08:10:53.713Z,79.93
2024-03-18T08:11:53.604Z,80.10
2024-03-18T08:12:53.684Z,78.87
2024-03-18T08:13:53.603Z,78.67
2024-03-18T08:14:53.597Z,78.56
2024-03-18T08:15:53.562Z,78.42
2024-03-18T08:16:53.585Z,77.61
2024-03-18T08:17:53.536Z,76.17
2024-03-18T08:18:53.588Z,76.17
2024-03-18T08:19:53.526Z,75.35
2024-03-18T08:20:54.388Z,75.76
2024-03-18T08:21:56.016Z,75.96
2024-03-18T08:22:53.587Z,76.48
2024-03-18T08:23:53.483Z,76.17
2024-03-18T08:24:53.521Z,75.82
2024-03-18T08:25:53.471Z,75.73
2024-03-18T08:26:53.506Z,75.31
2024-03-18T08:27:53.464Z,75.11
2024-03-18T08:28:53.463Z,74.87
2024-03-18T08:29:53.419Z,74.36
2024-03-18T08:30:53.463Z,74.36
2024-03-18T08:31:53.424Z,74.97
2024-03-18T08:33:07.463Z,75.07
2024-03-18T08:34:04.458Z,75.48
2024-03-18T08:34:53.395Z,74.87
2024-03-18T08:35:53.347Z,74.63
2024-03-18T08:36:53.417Z,74.63
2024-03-18T08:37:53.436Z,74.11
2024-03-18T08:38:53.334Z,74.84
2024-03-18T08:39:54.367Z,74.32
2024-03-18T08:40:53.311Z,74.73
2024-03-18T08:41:53.293Z,74.02
2024-03-18T08:42:53.283Z,74.29
2024-03-18T08:43:53.301Z,73.57
2024-03-18T08:44:53.311Z,73.78
2024-03-18T08:45:53.264Z,73.33
2024-03-18T08:46:53.297Z,73.85
2024-03-18T08:47:53.271Z,73.33
2024-03-18T08:48:53.250Z,72.28
2024-03-18T08:49:53.252Z,71.87
2024-03-18T08:50:53.206Z,71.87
2024-03-18T08:51:53.213Z,71.83
2024-03-18T08:52:53.208Z,70.92
2024-03-18T08:53:53.164Z,70.27
2024-03-18T08:54:53.172Z,70.37
2024-03-18T08:55:53.119Z,71.29
2024-03-18T08:56:53.160Z,70.47
2024-03-18T08:57:53.165Z,70.78
2024-03-18T08:58:53.166Z,71.09
2024-03-18T08:59:53.077Z,70.88
2024-03-18T09:00:53.112Z,70.98
2024-03-18T09:01:53.075Z,70.68
2024-03-18T09:02:53.114Z,70.03
2024-03-18T09:03:53.041Z,70.23
2024-03-18T09:04:53.057Z,69.32
2024-03-18T09:05:53.028Z,68.67
2024-03-18T09:06:53.040Z,68.16
2024-03-18T09:07:52.993Z,68.26
2024-03-18T09:08:53.025Z,68.23
2024-03-18T09:09:52.987Z,68.54
2024-03-18T09:10:53.010Z,68.03
2024-03-18T09:11:52.945Z,68.03
2024-03-18T09:12:52.967Z,67.62
2024-03-18T09:13:52.963Z,68.23
2024-03-18T09:14:52.946Z,67.29
2024-03-18T09:15:52.929Z,67.90
2024-03-18T09:16:52.941Z,67.15
2024-03-18T09:17:53.695Z,66.23
2024-03-18T09:18:52.910Z,65.92
2024-03-18T09:19:52.866Z,65.80
2024-03-18T09:20:52.904Z,64.67
2024-03-18T09:21:52.857Z,65.69
2024-03-18T09:22:52.850Z,64.78
2024-03-18T09:23:52.865Z,64.47
2024-03-18T09:24:52.847Z,65.08
2024-03-18T09:25:52.884Z,64.64
2024-03-18T09:26:52.799Z,63.93
2024-03-18T09:27:52.806Z,63.80
2024-03-18T09:28:52.818Z,63.90
2024-03-18T09:29:52.785Z,64.11
2024-03-18T09:30:52.789Z,62.98
2024-03-18T09:31:52.742Z,62.65
2024-03-18T09:32:52.769Z,62.24
2024-03-18T09:33:52.739Z,61.94
2024-03-18T09:34:52.724Z,62.48
2024-03-18T09:35:52.796Z,63.80
2024-03-18T09:36:52.729Z,64.41
2024-03-18T09:37:52.670Z,63.49
2024-03-18T09:38:52.699Z,63.09
2024-03-18T09:39:52.663Z,63.70
2024-03-18T09:40:52.663Z,63.80
2024-03-18T09:41:52.635Z,63.80
2024-03-18T09:42:52.638Z,64.31
2024-03-18T09:43:52.595Z,63.97
2024-03-18T09:44:52.648Z,63.06
2024-03-18T09:45:52.567Z,62.62
2024-03-18T09:46:52.596Z,62.11
2024-03-18T09:47:53.278Z,61.40
2024-03-18T09:48:52.667Z,61.20
2024-03-18T09:49:52.531Z,61.20
2024-03-18T09:50:52.575Z,61.81
2024-03-18T09:51:52.538Z,62.21
2024-03-18T09:52:52.604Z,62.52
2024-03-18T09:53:52.503Z,61.91
2024-03-18T09:54:52.522Z,61.40
2024-03-18T09:55:52.480Z,61.07
2024-03-18T09:56:52.484Z,60.66
2024-03-18T09:57:52.445Z,60.79
2024-03-18T09:58:53.636Z,61.53
2024-03-18T09:59:52.436Z,62.24
2024-03-18T10:00:52.443Z,62.75
2024-03-18T10:01:52.396Z,62.65
2024-03-18T10:02:52.419Z,62.24
2024-03-18T10:03:52.376Z,62.01
2024-03-18T10:04:52.379Z,61.71
2024-03-18T10:05:52.416Z,61.94
2024-03-18T10:06:52.367Z,61.63
2024-03-18T10:07:52.394Z,62.45
2024-03-18T10:08:52.337Z,62.85
2024-03-18T10:09:52.375Z,62.65
2024-03-18T10:10:52.330Z,62.55
2024-03-18T10:11:52.299Z,61.71
2024-03-18T10:12:52.308Z,62.52
2024-03-18T10:13:52.265Z,62.72
2024-03-18T10:14:52.293Z,62.62
2024-03-18T10:15:52.266Z,62.93
2024-03-18T10:16:52.252Z,62.41
2024-03-18T10:17:52.214Z,62.21
2024-03-18T10:18:52.236Z,62.08
2024-03-18T10:19:52.212Z,62.70
2024-03-18T10:20:52.236Z,62.49
2024-03-18T10:21:54.469Z,61.95
2024-03-18T10:22:52.230Z,61.85
2024-03-18T10:23:52.162Z,61.41
2024-03-18T10:24:52.171Z,60.81
2024-03-18T10:25:52.151Z,61.04
2024-03-18T10:26:52.160Z,61.55
2024-03-18T10:27:52.142Z,61.04
2024-03-18T10:28:52.140Z,61.21
2024-03-18T10:29:52.143Z,61.72
2024-03-18T10:30:52.153Z,61.01
2024-03-18T10:31:52.127Z,60.30
2024-03-18T10:32:54.555Z,60.10
2024-03-18T10:33:52.081Z,60.94
2024-03-18T10:34:52.042Z,61.44
2024-03-18T10:35:52.052Z,61.14
2024-03-18T10:36:54.483Z,61.65
2024-03-18T10:37:52.035Z,61.24
2024-03-18T10:38:51.989Z,61.32
2024-03-18T10:39:52.016Z,60.71
2024-03-18T10:40:52.028Z,60.17
2024-03-18T10:41:51.986Z,60.14
2024-03-18T10:42:51.940Z,59.94
2024-03-18T10:43:51.978Z,59.20
2024-03-18T10:44:52.507Z,58.39
2024-03-18T10:45:51.980Z,58.69
2024-03-18T10:46:51.905Z,58.69
2024-03-18T10:47:51.947Z,58.90
2024-03-18T10:48:51.876Z,58.90
2024-03-18T10:49:51.922Z,59.10
2024-03-18T10:50:51.863Z,59.20
2024-03-18T10:51:51.854Z,60.01
2024-03-18T10:52:51.841Z,58.97
2024-03-18T10:53:54.000Z,58.76
2024-03-18T10:54:51.811Z,58.67
2024-03-18T10:55:51.891Z,59.38
2024-03-18T10:56:51.802Z,59.30
2024-03-18T10:57:51.809Z,60.31
2024-03-18T10:58:51.766Z,60.11
2024-03-18T10:59:51.842Z,59.30
2024-03-18T11:00:52.494Z,58.69
2024-03-18T11:01:51.746Z,59.41
2024-03-18T11:02:51.732Z,59.41
2024-03-18T11:03:51.761Z,59.20
2024-03-18T11:04:51.701Z,59.81
2024-03-18T11:05:51.736Z,59.78
2024-03-18T11:06:51.684Z,59.17
2024-03-18T11:08:19.245Z,58.67
2024-03-18T11:09:20.180Z,58.87
2024-03-18T11:10:20.227Z,58.26
2024-03-18T11:11:20.166Z,58.76
2024-03-18T11:12:20.262Z,59.07
2024-03-18T11:13:20.291Z,59.05
2024-03-18T11:16:47.515Z,59.27
2024-03-18T11:17:49.196Z,59.38
2024-03-18T11:18:48.728Z,59.91
2024-03-18T11:19:48.499Z,59.91
2024-03-18T11:20:48.459Z,59.70
2024-03-18T11:21:48.430Z,59.81
2024-03-18T11:22:48.439Z,59.81
2024-03-18T11:23:48.407Z,59.81
2024-03-18T11:24:48.411Z,59.91
2024-03-18T11:25:48.402Z,59.84
2024-03-18T11:26:48.434Z,60.24
2024-03-18T11:27:48.364Z,60.75
2024-03-18T11:28:48.373Z,60.95
2024-03-18T11:29:48.350Z,60.82
2024-03-18T11:30:48.456Z,60.82
2024-03-18T11:31:49.328Z,60.62
2024-03-18T11:32:48.332Z,59.81
2024-03-18T11:33:48.300Z,60.01
2024-03-18T11:34:48.304Z,60.21
2024-03-18T11:35:48.296Z,59.61
2024-03-18T11:36:48.320Z,60.01
2024-03-18T11:37:48.261Z,59.88
2024-03-18T11:38:48.285Z,59.78
2024-03-18T11:39:48.232Z,59.48
2024-03-18T11:40:48.241Z,59.38
2024-03-18T11:41:48.281Z,59.17
2024-03-18T11:42:48.295Z,59.58
2024-03-18T11:43:48.218Z,59.68
2024-03-18T11:44:48.237Z,59.07
2024-03-18T11:45:48.174Z,59.58
2024-03-18T11:46:48.247Z,60.19
2024-03-18T11:47:48.146Z,60.59
2024-03-18T11:48:48.162Z,59.78
2024-03-18T11:49:48.182Z,59.58
2024-03-18T11:50:48.157Z,59.48
2024-03-18T11:51:48.105Z,59.68
2024-03-18T11:52:48.126Z,59.07
2024-03-18T11:53:48.117Z,58.76
2024-03-18T11:54:48.085Z,59.41
2024-03-18T11:55:48.091Z,59.10
2024-03-18T11:56:48.083Z,59.78
2024-03-18T11:57:48.065Z,59.78
2024-03-18T11:58:47.069Z,59.27
2024-03-18T11:59:48.100Z,59.68
2024-03-18T12:00:48.039Z,58.56
2024-03-18T12:01:47.997Z,58.90
2024-03-18T12:02:48.020Z,59.61
2024-03-18T12:03:47.983Z,59.50
2024-03-18T12:04:48.041Z,59.50
2024-03-18T12:05:47.951Z,58.76
2024-03-18T12:06:47.974Z,58.87
2024-03-18T12:07:47.953Z,59.38
2024-03-18T12:08:47.949Z,60.08
2024-03-18T12:09:47.919Z,59.78
2024-03-18T12:10:47.922Z,59.17
2024-03-18T12:11:47.890Z,59.07
2024-03-18T12:12:47.898Z,59.25
2024-03-18T12:13:47.870Z,58.67
2024-03-18T12:14:47.891Z,59.38
2024-03-18T12:15:47.846Z,59.91
2024-03-18T12:16:47.956Z,60.62
2024-03-18T12:17:47.828Z,60.62
2024-03-18T12:18:47.835Z,60.08
2024-03-18T12:19:47.818Z,59.78
2024-03-18T12:20:47.836Z,59.68
2024-03-18T12:21:47.783Z,59.58
2024-03-18T12:22:47.796Z,59.17
2024-03-18T12:23:47.759Z,58.76
2024-03-18T12:24:47.774Z,59.61
2024-03-18T12:25:47.749Z,60.01
2024-03-18T12:26:47.776Z,61.02
2024-03-18T12:27:47.712Z,60.35
2024-03-18T12:28:47.749Z,60.75
2024-03-18T12:29:47.707Z,60.35
2024-03-18T12:30:47.725Z,60.04
2024-03-18T12:31:47.669Z,61.46
2024-03-18T12:32:47.697Z,60.75
2024-03-18T12:33:47.649Z,60.95
2024-03-18T12:34:47.663Z,61.02
2024-03-18T12:35:47.628Z,60.52
2024-03-18T12:36:47.675Z,60.72
2024-03-18T12:37:47.667Z,61.25
2024-03-18T12:38:47.652Z,62.17
2024-03-18T12:39:47.765Z,61.66
2024-03-18T12:40:47.654Z,61.87
2024-03-18T12:41:47.558Z,62.60
2024-03-18T12:42:49.034Z,63.89
2024-03-18T12:43:47.539Z,63.79
2024-03-18T12:44:47.544Z,62.68
2024-03-18T12:45:47.516Z,62.37
2024-03-18T12:46:47.524Z,62.40
2024-03-18T12:47:47.492Z,61.99
2024-03-18T12:48:47.586Z,61.90
2024-03-18T12:49:47.494Z,61.59
2024-03-18T12:50:47.492Z,61.79
2024-03-18T12:51:47.449Z,63.92
2024-03-18T12:52:47.496Z,65.17
2024-03-18T12:53:47.437Z,66.90
2024-03-18T12:54:47.447Z,66.69
2024-03-18T12:55:47.404Z,65.88